Terminal Aerodrome Forecast
Issued by NWS

Home | Current Version | Previous Version | Graphics & Text | Print | Product List | Glossary On
Versions: 1 2 3 4 5 6 7 8 9 10 11 12 13 14 15 16 17 18 19 20 21 22
000
FTUS41 KCLE 130909 AAA
TAFFDY
TAF AMD
KFDY 130909Z 1309/1406 26008KT P6SM OVC025
     FM131300 23008KT P6SM VCSH SCT025 OVC040
     FM131500 21008KT 4SM -SN SCT025 OVC035
     FM132000 18011KT 4SM -SN SCT015 OVC025
      TEMPO 1322/1402 1 1/2SM -SN BKN015 OVC025
     FM140400 33010KT P6SM OVC015=

USA.gov is the U.S. government's official web portal to all federal, state and local government web resources and services.